sensor_id;sensor_type;location;lat;lon;timestamp;P1;durP1;ratioP1;P2;durP2;ratioP2
37445;SDS011;23307;51.136;14.942;2023-02-21T00:01:54;4.90;;;3.03;;
37445;SDS011;23307;51.136;14.942;2023-02-21T00:04:39;4.07;;;2.95;;
37445;SDS011;23307;51.136;14.942;2023-02-21T00:07:24;2.95;;;2.65;;
37445;SDS011;23307;51.136;14.942;2023-02-21T00:10:08;5.60;;;3.50;;
37445;SDS011;23307;51.136;14.942;2023-02-21T00:12:55;4.17;;;3.10;;
37445;SDS011;23307;51.136;14.942;2023-02-21T00:15:39;4.70;;;3.37;;
37445;SDS011;23307;51.136;14.942;2023-02-21T00:18:23;5.45;;;3.70;;
37445;SDS011;23307;51.136;14.942;2023-02-21T00:21:08;3.57;;;2.77;;
37445;SDS011;23307;51.136;14.942;2023-02-21T00:23:52;4.40;;;2.92;;
37445;SDS011;23307;51.136;14.942;2023-02-21T00:26:36;3.93;;;3.10;;
37445;SDS011;23307;51.136;14.942;2023-02-21T00:29:20;3.03;;;2.37;;
37445;SDS011;23307;51.136;14.942;2023-02-21T00:32:04;4.63;;;3.30;;
37445;SDS011;23307;51.136;14.942;2023-02-21T00:34:48;4.30;;;2.97;;
37445;SDS011;23307;51.136;14.942;2023-02-21T00:37:32;3.67;;;3.10;;
37445;SDS011;23307;51.136;14.942;2023-02-21T00:40:16;4.73;;;2.33;;
37445;SDS011;23307;51.136;14.942;2023-02-21T00:43:01;3.30;;;2.37;;
37445;SDS011;23307;51.136;14.942;2023-02-21T00:45:45;6.03;;;2.50;;
37445;SDS011;23307;51.136;14.942;2023-02-21T00:48:29;3.20;;;2.70;;
37445;SDS011;23307;51.136;14.942;2023-02-21T00:51:14;3.67;;;2.87;;
37445;SDS011;23307;51.136;14.942;2023-02-21T00:53:58;3.20;;;2.30;;
37445;SDS011;23307;51.136;14.942;2023-02-21T00:56:42;2.97;;;2.07;;
37445;SDS011;23307;51.136;14.942;2023-02-21T00:59:26;2.63;;;2.10;;
37445;SDS011;23307;51.136;14.942;2023-02-21T01:02:10;2.73;;;2.10;;
37445;SDS011;23307;51.136;14.942;2023-02-21T01:04:54;2.50;;;2.27;;
37445;SDS011;23307;51.136;14.942;2023-02-21T01:07:38;2.20;;;1.75;;
37445;SDS011;23307;51.136;14.942;2023-02-21T01:10:22;3.35;;;2.40;;
37445;SDS011;23307;51.136;14.942;2023-02-21T01:13:07;2.40;;;1.73;;
37445;SDS011;23307;51.136;14.942;2023-02-21T01:15:51;2.30;;;1.90;;
37445;SDS011;23307;51.136;14.942;2023-02-21T01:18:35;4.30;;;2.30;;
37445;SDS011;23307;51.136;14.942;2023-02-21T01:21:19;2.90;;;2.50;;
37445;SDS011;23307;51.136;14.942;2023-02-21T01:24:04;2.45;;;2.05;;
37445;SDS011;23307;51.136;14.942;2023-02-21T01:26:49;4.90;;;2.70;;
37445;SDS011;23307;51.136;14.942;2023-02-21T01:29:33;3.80;;;2.60;;
37445;SDS011;23307;51.136;14.942;2023-02-21T01:32:18;3.60;;;2.40;;
37445;SDS011;23307;51.136;14.942;2023-02-21T01:35:02;2.37;;;1.87;;
37445;SDS011;23307;51.136;14.942;2023-02-21T01:37:47;3.50;;;2.70;;
37445;SDS011;23307;51.136;14.942;2023-02-21T01:40:31;2.60;;;2.20;;
37445;SDS011;23307;51.136;14.942;2023-02-21T01:43:19;4.73;;;2.37;;
37445;SDS011;23307;51.136;14.942;2023-02-21T01:46:06;3.13;;;2.47;;
37445;SDS011;23307;51.136;14.942;2023-02-21T01:48:55;4.85;;;2.83;;
37445;SDS011;23307;51.136;14.942;2023-02-21T01:51:41;4.18;;;3.17;;
37445;SDS011;23307;51.136;14.942;2023-02-21T01:54:35;4.60;;;3.07;;
37445;SDS011;23307;51.136;14.942;2023-02-21T01:57:24;4.25;;;3.08;;
37445;SDS011;23307;51.136;14.942;2023-02-21T02:00:09;3.63;;;2.87;;
37445;SDS011;23307;51.136;14.942;2023-02-21T02:02:59;4.22;;;3.42;;
37445;SDS011;23307;51.136;14.942;2023-02-21T02:05:48;3.53;;;3.15;;
37445;SDS011;23307;51.136;14.942;2023-02-21T02:08:36;5.53;;;3.10;;
37445;SDS011;23307;51.136;14.942;2023-02-21T02:14:35;4.90;;;3.65;;
37445;SDS011;23307;51.136;14.942;2023-02-21T02:17:20;4.80;;;3.60;;
37445;SDS011;23307;51.136;14.942;2023-02-21T02:37:22;4.05;;;3.10;;
37445;SDS011;23307;51.136;14.942;2023-02-21T02:45:25;3.77;;;2.90;;
37445;SDS011;23307;51.136;14.942;2023-02-21T02:48:24;3.83;;;3.20;;
37445;SDS011;23307;51.136;14.942;2023-02-21T02:51:31;3.70;;;2.80;;
37445;SDS011;23307;51.136;14.942;2023-02-21T02:53:58;4.68;;;2.78;;
37445;SDS011;23307;51.136;14.942;2023-02-21T02:56:24;4.00;;;3.10;;
37445;SDS011;23307;51.136;14.942;2023-02-21T02:59:09;3.60;;;2.92;;
37445;SDS011;23307;51.136;14.942;2023-02-21T03:12:24;4.80;;;3.70;;
37445;SDS011;23307;51.136;14.942;2023-02-21T03:15:02;5.13;;;3.30;;
37445;SDS011;23307;51.136;14.942;2023-02-21T03:17:41;4.53;;;3.60;;
37445;SDS011;23307;51.136;14.942;2023-02-21T03:20:10;6.97;;;3.55;;
37445;SDS011;23307;51.136;14.942;2023-02-21T03:22:37;4.00;;;3.17;;
37445;SDS011;23307;51.136;14.942;2023-02-21T03:25:06;4.10;;;3.30;;
37445;SDS011;23307;51.136;14.942;2023-02-21T03:27:32;8.15;;;3.97;;
37445;SDS011;23307;51.136;14.942;2023-02-21T03:30:02;4.18;;;3.20;;
37445;SDS011;23307;51.136;14.942;2023-02-21T03:32:31;4.32;;;3.50;;
37445;SDS011;23307;51.136;14.942;2023-02-21T03:35:00;3.88;;;3.22;;
37445;SDS011;23307;51.136;14.942;2023-02-21T03:37:37;4.47;;;3.60;;
37445;SDS011;23307;51.136;14.942;2023-02-21T03:40:07;4.07;;;3.22;;
37445;SDS011;23307;51.136;14.942;2023-02-21T03:42:41;4.95;;;3.50;;
37445;SDS011;23307;51.136;14.942;2023-02-21T03:45:07;6.28;;;3.50;;
37445;SDS011;23307;51.136;14.942;2023-02-21T03:47:34;4.65;;;3.22;;
37445;SDS011;23307;51.136;14.942;2023-02-21T03:49:59;4.13;;;3.33;;
37445;SDS011;23307;51.136;14.942;2023-02-21T03:52:25;5.22;;;3.78;;
37445;SDS011;23307;51.136;14.942;2023-02-21T03:54:51;4.70;;;3.47;;
37445;SDS011;23307;51.136;14.942;2023-02-21T03:57:16;4.55;;;3.58;;
37445;SDS011;23307;51.136;14.942;2023-02-21T03:59:42;5.88;;;3.92;;
37445;SDS011;23307;51.136;14.942;2023-02-21T04:02:08;4.80;;;3.78;;
37445;SDS011;23307;51.136;14.942;2023-02-21T04:04:33;4.25;;;2.85;;
37445;SDS011;23307;51.136;14.942;2023-02-21T04:06:59;5.45;;;3.65;;
37445;SDS011;23307;51.136;14.942;2023-02-21T04:09:24;5.68;;;3.45;;
37445;SDS011;23307;51.136;14.942;2023-02-21T04:11:50;4.80;;;3.45;;
37445;SDS011;23307;51.136;14.942;2023-02-21T04:14:16;6.10;;;4.03;;
37445;SDS011;23307;51.136;14.942;2023-02-21T04:16:42;4.65;;;2.72;;
37445;SDS011;23307;51.136;14.942;2023-02-21T04:19:08;3.90;;;3.50;;
37445;SDS011;23307;51.136;14.942;2023-02-21T04:21:33;5.70;;;3.70;;
37445;SDS011;23307;51.136;14.942;2023-02-21T04:23:59;5.32;;;3.70;;
37445;SDS011;23307;51.136;14.942;2023-02-21T04:26:24;3.53;;;3.22;;
37445;SDS011;23307;51.136;14.942;2023-02-21T04:28:50;3.92;;;3.25;;
37445;SDS011;23307;51.136;14.942;2023-02-21T04:31:17;4.72;;;3.78;;
37445;SDS011;23307;51.136;14.942;2023-02-21T04:33:43;4.55;;;3.78;;
37445;SDS011;23307;51.136;14.942;2023-02-21T04:36:08;5.25;;;3.85;;
37445;SDS011;23307;51.136;14.942;2023-02-21T04:38:34;5.75;;;3.05;;
37445;SDS011;23307;51.136;14.942;2023-02-21T04:41:02;4.75;;;3.25;;
37445;SDS011;23307;51.136;14.942;2023-02-21T04:43:28;5.07;;;3.30;;
37445;SDS011;23307;51.136;14.942;2023-02-21T04:45:54;3.63;;;2.47;;
37445;SDS011;23307;51.136;14.942;2023-02-21T04:48:20;3.55;;;3.17;;
37445;SDS011;23307;51.136;14.942;2023-02-21T04:50:45;4.18;;;3.50;;
37445;SDS011;23307;51.136;14.942;2023-02-21T04:53:11;5.53;;;3.58;;
37445;SDS011;23307;51.136;14.942;2023-02-21T04:55:37;5.97;;;3.83;;
37445;SDS011;23307;51.136;14.942;2023-02-21T04:58:02;4.57;;;2.95;;
37445;SDS011;23307;51.136;14.942;2023-02-21T05:00:28;5.38;;;3.50;;
37445;SDS011;23307;51.136;14.942;2023-02-21T05:02:54;4.70;;;3.10;;
37445;SDS011;23307;51.136;14.942;2023-02-21T05:05:19;3.78;;;2.88;;
37445;SDS011;23307;51.136;14.942;2023-02-21T05:07:45;4.35;;;2.67;;
37445;SDS011;23307;51.136;14.942;2023-02-21T05:10:11;5.45;;;3.60;;
37445;SDS011;23307;51.136;14.942;2023-02-21T05:12:36;4.43;;;3.25;;
37445;SDS011;23307;51.136;14.942;2023-02-21T05:15:04;4.57;;;3.40;;
37445;SDS011;23307;51.136;14.942;2023-02-21T05:17:30;4.82;;;3.60;;
37445;SDS011;23307;51.136;14.942;2023-02-21T05:19:56;5.18;;;3.50;;
37445;SDS011;23307;51.136;14.942;2023-02-21T05:22:22;4.65;;;2.88;;
37445;SDS011;23307;51.136;14.942;2023-02-21T05:24:47;4.32;;;3.38;;
37445;SDS011;23307;51.136;14.942;2023-02-21T05:27:14;4.60;;;3.60;;
37445;SDS011;23307;51.136;14.942;2023-02-21T05:29:51;5.05;;;3.92;;
37445;SDS011;23307;51.136;14.942;2023-02-21T05:32:18;4.30;;;3.40;;
37445;SDS011;23307;51.136;14.942;2023-02-21T05:34:45;4.22;;;2.85;;
37445;SDS011;23307;51.136;14.942;2023-02-21T05:37:16;5.18;;;3.70;;
37445;SDS011;23307;51.136;14.942;2023-02-21T05:39:45;3.92;;;2.90;;
37445;SDS011;23307;51.136;14.942;2023-02-21T05:42:10;4.47;;;3.70;;
37445;SDS011;23307;51.136;14.942;2023-02-21T05:44:36;4.38;;;3.67;;
37445;SDS011;23307;51.136;14.942;2023-02-21T05:47:02;6.30;;;4.72;;
37445;SDS011;23307;51.136;14.942;2023-02-21T05:49:28;4.68;;;3.08;;
37445;SDS011;23307;51.136;14.942;2023-02-21T05:51:53;4.45;;;3.55;;
37445;SDS011;23307;51.136;14.942;2023-02-21T05:54:20;5.50;;;3.10;;
37445;SDS011;23307;51.136;14.942;2023-02-21T05:56:47;4.57;;;3.80;;
37445;SDS011;23307;51.136;14.942;2023-02-21T05:59:14;5.13;;;3.55;;
37445;SDS011;23307;51.136;14.942;2023-02-21T06:01:42;4.53;;;3.08;;
37445;SDS011;23307;51.136;14.942;2023-02-21T06:04:08;5.97;;;4.23;;
37445;SDS011;23307;51.136;14.942;2023-02-21T06:06:34;5.35;;;3.55;;
37445;SDS011;23307;51.136;14.942;2023-02-21T06:09:00;5.83;;;4.50;;
37445;SDS011;23307;51.136;14.942;2023-02-21T06:11:27;4.38;;;3.65;;
37445;SDS011;23307;51.136;14.942;2023-02-21T06:13:54;5.95;;;4.45;;
37445;SDS011;23307;51.136;14.942;2023-02-21T06:16:22;5.07;;;3.77;;
37445;SDS011;23307;51.136;14.942;2023-02-21T06:18:49;7.00;;;4.20;;
37445;SDS011;23307;51.136;14.942;2023-02-21T06:21:18;7.13;;;4.40;;
37445;SDS011;23307;51.136;14.942;2023-02-21T06:23:44;6.50;;;4.43;;
37445;SDS011;23307;51.136;14.942;2023-02-21T06:26:10;7.20;;;5.25;;
37445;SDS011;23307;51.136;14.942;2023-02-21T06:28:36;9.88;;;5.40;;
37445;SDS011;23307;51.136;14.942;2023-02-21T06:31:02;6.30;;;4.80;;
37445;SDS011;23307;51.136;14.942;2023-02-21T06:33:28;8.23;;;5.93;;
37445;SDS011;23307;51.136;14.942;2023-02-21T06:35:54;7.20;;;5.40;;
37445;SDS011;23307;51.136;14.942;2023-02-21T06:38:20;7.93;;;4.30;;
37445;SDS011;23307;51.136;14.942;2023-02-21T06:40:46;7.07;;;5.13;;
37445;SDS011;23307;51.136;14.942;2023-02-21T06:43:11;6.57;;;4.67;;
37445;SDS011;23307;51.136;14.942;2023-02-21T06:45:37;8.37;;;4.27;;
37445;SDS011;23307;51.136;14.942;2023-02-21T06:48:02;8.15;;;5.43;;
37445;SDS011;23307;51.136;14.942;2023-02-21T06:50:28;5.95;;;4.50;;
37445;SDS011;23307;51.136;14.942;2023-02-21T06:52:53;5.95;;;4.22;;
37445;SDS011;23307;51.136;14.942;2023-02-21T06:55:20;7.85;;;5.50;;
37445;SDS011;23307;51.136;14.942;2023-02-21T06:57:46;5.68;;;4.22;;
37445;SDS011;23307;51.136;14.942;2023-02-21T07:00:12;5.85;;;4.43;;
37445;SDS011;23307;51.136;14.942;2023-02-21T07:02:38;10.65;;;6.00;;
37445;SDS011;23307;51.136;14.942;2023-02-21T07:05:04;6.80;;;4.68;;
37445;SDS011;23307;51.136;14.942;2023-02-21T07:07:30;9.20;;;5.75;;
37445;SDS011;23307;51.136;14.942;2023-02-21T07:09:55;5.55;;;4.20;;
37445;SDS011;23307;51.136;14.942;2023-02-21T07:12:21;6.70;;;5.43;;
37445;SDS011;23307;51.136;14.942;2023-02-21T07:14:47;7.10;;;5.45;;
37445;SDS011;23307;51.136;14.942;2023-02-21T07:17:12;8.20;;;4.50;;
37445;SDS011;23307;51.136;14.942;2023-02-21T07:19:38;6.70;;;5.15;;
37445;SDS011;23307;51.136;14.942;2023-02-21T07:22:06;6.95;;;5.63;;
37445;SDS011;23307;51.136;14.942;2023-02-21T07:24:32;7.20;;;5.57;;
37445;SDS011;23307;51.136;14.942;2023-02-21T07:26:58;7.83;;;5.73;;
37445;SDS011;23307;51.136;14.942;2023-02-21T07:29:24;7.05;;;5.13;;
37445;SDS011;23307;51.136;14.942;2023-02-21T07:31:50;7.80;;;5.25;;
37445;SDS011;23307;51.136;14.942;2023-02-21T07:34:15;4.60;;;3.60;;
37445;SDS011;23307;51.136;14.942;2023-02-21T07:36:41;6.03;;;4.03;;
37445;SDS011;23307;51.136;14.942;2023-02-21T07:39:07;6.95;;;4.95;;
37445;SDS011;23307;51.136;14.942;2023-02-21T07:41:32;6.57;;;4.78;;
37445;SDS011;23307;51.136;14.942;2023-02-21T07:43:58;5.60;;;3.58;;
37445;SDS011;23307;51.136;14.942;2023-02-21T07:46:25;6.87;;;5.30;;
37445;SDS011;23307;51.136;14.942;2023-02-21T07:48:51;7.03;;;5.60;;
37445;SDS011;23307;51.136;14.942;2023-02-21T07:51:17;5.40;;;4.17;;
37445;SDS011;23307;51.136;14.942;2023-02-21T07:53:42;6.50;;;5.00;;
37445;SDS011;23307;51.136;14.942;2023-02-21T07:56:08;7.97;;;5.27;;
37445;SDS011;23307;51.136;14.942;2023-02-21T07:58:34;5.90;;;4.47;;
37445;SDS011;23307;51.136;14.942;2023-02-21T08:01:02;9.52;;;5.45;;
37445;SDS011;23307;51.136;14.942;2023-02-21T08:03:31;5.90;;;3.83;;
37445;SDS011;23307;51.136;14.942;2023-02-21T08:05:58;5.40;;;3.95;;
37445;SDS011;23307;51.136;14.942;2023-02-21T08:08:24;6.07;;;4.50;;
37445;SDS011;23307;51.136;14.942;2023-02-21T08:10:50;5.30;;;4.07;;
37445;SDS011;23307;51.136;14.942;2023-02-21T08:13:16;6.55;;;4.10;;
37445;SDS011;23307;51.136;14.942;2023-02-21T08:15:41;4.85;;;3.70;;
37445;SDS011;23307;51.136;14.942;2023-02-21T08:18:13;4.82;;;3.83;;
37445;SDS011;23307;51.136;14.942;2023-02-21T08:20:44;7.05;;;4.72;;
37445;SDS011;23307;51.136;14.942;2023-02-21T08:23:11;7.35;;;5.45;;
37445;SDS011;23307;51.136;14.942;2023-02-21T08:25:37;5.72;;;4.80;;
37445;SDS011;23307;51.136;14.942;2023-02-21T08:28:02;6.10;;;4.13;;
37445;SDS011;23307;51.136;14.942;2023-02-21T08:30:28;6.57;;;5.13;;
37445;SDS011;23307;51.136;14.942;2023-02-21T08:32:54;6.93;;;5.43;;
37445;SDS011;23307;51.136;14.942;2023-02-21T08:35:19;6.80;;;4.82;;
37445;SDS011;23307;51.136;14.942;2023-02-21T08:37:46;7.65;;;5.47;;
37445;SDS011;23307;51.136;14.942;2023-02-21T08:40:13;6.70;;;4.45;;
37445;SDS011;23307;51.136;14.942;2023-02-21T08:42:39;8.35;;;5.53;;
37445;SDS011;23307;51.136;14.942;2023-02-21T08:45:05;5.60;;;4.38;;
37445;SDS011;23307;51.136;14.942;2023-02-21T08:47:33;7.82;;;5.38;;
37445;SDS011;23307;51.136;14.942;2023-02-21T08:50:00;8.50;;;5.82;;
37445;SDS011;23307;51.136;14.942;2023-02-21T08:52:25;9.40;;;6.60;;
37445;SDS011;23307;51.136;14.942;2023-02-21T08:54:51;7.53;;;5.13;;
37445;SDS011;23307;51.136;14.942;2023-02-21T08:57:16;7.88;;;5.78;;
37445;SDS011;23307;51.136;14.942;2023-02-21T08:59:42;8.73;;;6.10;;
37445;SDS011;23307;51.136;14.942;2023-02-21T09:02:19;7.93;;;5.57;;
37445;SDS011;23307;51.136;14.942;2023-02-21T09:04:46;6.68;;;5.15;;
37445;SDS011;23307;51.136;14.942;2023-02-21T09:07:12;7.30;;;5.07;;
37445;SDS011;23307;51.136;14.942;2023-02-21T09:09:38;7.50;;;5.55;;
37445;SDS011;23307;51.136;14.942;2023-02-21T09:12:04;6.53;;;4.85;;
37445;SDS011;23307;51.136;14.942;2023-02-21T09:14:33;10.32;;;7.38;;
37445;SDS011;23307;51.136;14.942;2023-02-21T09:17:02;7.70;;;5.97;;
37445;SDS011;23307;51.136;14.942;2023-02-21T09:19:29;7.18;;;5.47;;
37445;SDS011;23307;51.136;14.942;2023-02-21T09:21:55;6.85;;;5.00;;
37445;SDS011;23307;51.136;14.942;2023-02-21T09:24:21;8.32;;;5.55;;
37445;SDS011;23307;51.136;14.942;2023-02-21T09:26:50;6.87;;;4.93;;
37445;SDS011;23307;51.136;14.942;2023-02-21T09:29:20;10.10;;;6.97;;
37445;SDS011;23307;51.136;14.942;2023-02-21T09:31:47;6.95;;;4.85;;
37445;SDS011;23307;51.136;14.942;2023-02-21T09:34:13;9.90;;;6.78;;
37445;SDS011;23307;51.136;14.942;2023-02-21T09:36:39;9.40;;;6.15;;
37445;SDS011;23307;51.136;14.942;2023-02-21T09:39:04;9.80;;;6.15;;
37445;SDS011;23307;51.136;14.942;2023-02-21T09:41:31;9.82;;;6.70;;
37445;SDS011;23307;51.136;14.942;2023-02-21T09:43:58;6.20;;;4.57;;
37445;SDS011;23307;51.136;14.942;2023-02-21T09:46:41;9.85;;;6.50;;
37445;SDS011;23307;51.136;14.942;2023-02-21T09:49:11;10.77;;;7.00;;
37445;SDS011;23307;51.136;14.942;2023-02-21T09:51:43;9.32;;;6.00;;
37445;SDS011;23307;51.136;14.942;2023-02-21T09:54:14;10.55;;;5.95;;
37445;SDS011;23307;51.136;14.942;2023-02-21T09:56:47;7.65;;;5.65;;
37445;SDS011;23307;51.136;14.942;2023-02-21T09:59:12;10.48;;;7.15;;
37445;SDS011;23307;51.136;14.942;2023-02-21T10:01:54;10.20;;;7.28;;
37445;SDS011;23307;51.136;14.942;2023-02-21T10:04:40;9.75;;;6.47;;
37445;SDS011;23307;51.136;14.942;2023-02-21T10:10:21;8.02;;;5.55;;
37445;SDS011;23307;51.136;14.942;2023-02-21T10:13:10;7.53;;;5.78;;
37445;SDS011;23307;51.136;14.942;2023-02-21T10:15:47;8.55;;;6.47;;
37445;SDS011;23307;51.136;14.942;2023-02-21T10:20:58;8.02;;;5.70;;
37445;SDS011;23307;51.136;14.942;2023-02-21T10:23:32;8.23;;;5.38;;
37445;SDS011;23307;51.136;14.942;2023-02-21T10:26:11;7.57;;;5.07;;
37445;SDS011;23307;51.136;14.942;2023-02-21T10:28:40;9.68;;;5.78;;
37445;SDS011;23307;51.136;14.942;2023-02-21T10:31:17;8.07;;;6.38;;
37445;SDS011;23307;51.136;14.942;2023-02-21T10:33:48;9.57;;;6.03;;
37445;SDS011;23307;51.136;14.942;2023-02-21T10:36:17;7.00;;;5.30;;
37445;SDS011;23307;51.136;14.942;2023-02-21T10:39:33;8.20;;;5.38;;
37445;SDS011;23307;51.136;14.942;2023-02-21T10:41:38;8.70;;;4.93;;
37445;SDS011;23307;51.136;14.942;2023-02-21T10:44:09;6.63;;;4.47;;
37445;SDS011;23307;51.136;14.942;2023-02-21T10:46:38;5.90;;;4.78;;
37445;SDS011;23307;51.136;14.942;2023-02-21T10:49:24;10.05;;;6.38;;
37445;SDS011;23307;51.136;14.942;2023-02-21T10:52:08;9.45;;;6.07;;
37445;SDS011;23307;51.136;14.942;2023-02-21T10:54:35;6.07;;;4.47;;
37445;SDS011;23307;51.136;14.942;2023-02-21T10:57:03;6.13;;;4.30;;
37445;SDS011;23307;51.136;14.942;2023-02-21T10:59:32;8.30;;;4.65;;
37445;SDS011;23307;51.136;14.942;2023-02-21T11:02:08;7.38;;;3.92;;
37445;SDS011;23307;51.136;14.942;2023-02-21T11:05:06;6.80;;;5.18;;
37445;SDS011;23307;51.136;14.942;2023-02-21T11:07:54;6.07;;;5.10;;
37445;SDS011;23307;51.136;14.942;2023-02-21T11:10:27;5.75;;;3.80;;
37445;SDS011;23307;51.136;14.942;2023-02-21T11:13:02;7.80;;;4.97;;
37445;SDS011;23307;51.136;14.942;2023-02-21T11:15:34;5.57;;;3.75;;
37445;SDS011;23307;51.136;14.942;2023-02-21T11:18:09;7.47;;;5.25;;
37445;SDS011;23307;51.136;14.942;2023-02-21T11:20:46;7.00;;;5.32;;
37445;SDS011;23307;51.136;14.942;2023-02-21T11:23:25;6.07;;;4.93;;
37445;SDS011;23307;51.136;14.942;2023-02-21T11:26:06;6.32;;;4.88;;
37445;SDS011;23307;51.136;14.942;2023-02-21T11:28:36;4.53;;;3.63;;
37445;SDS011;23307;51.136;14.942;2023-02-21T11:31:05;6.53;;;5.32;;
37445;SDS011;23307;51.136;14.942;2023-02-21T11:36:29;6.35;;;3.97;;
37445;SDS011;23307;51.136;14.942;2023-02-21T11:44:31;6.35;;;4.75;;
37445;SDS011;23307;51.136;14.942;2023-02-21T11:49:55;5.93;;;4.32;;
37445;SDS011;23307;51.136;14.942;2023-02-21T11:52:30;8.25;;;5.22;;
37445;SDS011;23307;51.136;14.942;2023-02-21T11:55:03;7.45;;;4.88;;
37445;SDS011;23307;51.136;14.942;2023-02-21T11:57:40;6.75;;;5.15;;
37445;SDS011;23307;51.136;14.942;2023-02-21T12:00:24;6.80;;;4.85;;
37445;SDS011;23307;51.136;14.942;2023-02-21T12:03:35;6.00;;;4.35;;
37445;SDS011;23307;51.136;14.942;2023-02-21T12:09:33;10.27;;;5.32;;
37445;SDS011;23307;51.136;14.942;2023-02-21T12:13:02;9.23;;;6.30;;
37445;SDS011;23307;51.136;14.942;2023-02-21T12:15:54;8.98;;;5.72;;
37445;SDS011;23307;51.136;14.942;2023-02-21T12:18:25;9.75;;;5.53;;
37445;SDS011;23307;51.136;14.942;2023-02-21T12:21:09;7.50;;;5.80;;
37445;SDS011;23307;51.136;14.942;2023-02-21T12:32:29;7.97;;;5.63;;
37445;SDS011;23307;51.136;14.942;2023-02-21T12:41:00;7.18;;;5.47;;
37445;SDS011;23307;51.136;14.942;2023-02-21T12:46:11;7.93;;;5.25;;
37445;SDS011;23307;51.136;14.942;2023-02-21T12:52:11;8.43;;;5.82;;
37445;SDS011;23307;51.136;14.942;2023-02-21T12:54:43;6.38;;;4.82;;
37445;SDS011;23307;51.136;14.942;2023-02-21T13:05:45;9.40;;;6.30;;
37445;SDS011;23307;51.136;14.942;2023-02-21T13:08:15;7.75;;;5.65;;
37445;SDS011;23307;51.136;14.942;2023-02-21T13:13:24;6.57;;;5.18;;
37445;SDS011;23307;51.136;14.942;2023-02-21T13:15:53;6.13;;;4.35;;
37445;SDS011;23307;51.136;14.942;2023-02-21T13:18:25;6.75;;;4.75;;
37445;SDS011;23307;51.136;14.942;2023-02-21T13:20:59;6.53;;;5.30;;
37445;SDS011;23307;51.136;14.942;2023-02-21T13:23:37;6.50;;;5.07;;
37445;SDS011;23307;51.136;14.942;2023-02-21T13:26:45;7.95;;;6.07;;
37445;SDS011;23307;51.136;14.942;2023-02-21T13:29:26;7.55;;;5.50;;
37445;SDS011;23307;51.136;14.942;2023-02-21T13:31:59;7.28;;;5.88;;
37445;SDS011;23307;51.136;14.942;2023-02-21T13:34:37;8.77;;;5.57;;
37445;SDS011;23307;51.136;14.942;2023-02-21T13:37:06;7.75;;;5.82;;
37445;SDS011;23307;51.136;14.942;2023-02-21T13:39:38;7.50;;;5.05;;
37445;SDS011;23307;51.136;14.942;2023-02-21T13:42:14;6.15;;;4.15;;
37445;SDS011;23307;51.136;14.942;2023-02-21T13:44:53;7.70;;;5.55;;
37445;SDS011;23307;51.136;14.942;2023-02-21T13:48:08;7.65;;;5.43;;
37445;SDS011;23307;51.136;14.942;2023-02-21T13:53:22;8.05;;;6.13;;
37445;SDS011;23307;51.136;14.942;2023-02-21T13:58:38;7.88;;;5.63;;
37445;SDS011;23307;51.136;14.942;2023-02-21T14:01:15;6.28;;;4.88;;
37445;SDS011;23307;51.136;14.942;2023-02-21T14:03:46;7.93;;;5.43;;
37445;SDS011;23307;51.136;14.942;2023-02-21T14:06:31;7.43;;;5.13;;
37445;SDS011;23307;51.136;14.942;2023-02-21T14:08:59;7.35;;;4.30;;
37445;SDS011;23307;51.136;14.942;2023-02-21T14:11:36;6.93;;;4.97;;
37445;SDS011;23307;51.136;14.942;2023-02-21T14:14:18;7.20;;;5.35;;
37445;SDS011;23307;51.136;14.942;2023-02-21T14:16:45;5.60;;;4.50;;
37445;SDS011;23307;51.136;14.942;2023-02-21T14:19:30;9.18;;;4.45;;
37445;SDS011;23307;51.136;14.942;2023-02-21T14:22:20;5.72;;;4.47;;
37445;SDS011;23307;51.136;14.942;2023-02-21T14:24:49;5.63;;;4.60;;
37445;SDS011;23307;51.136;14.942;2023-02-21T14:37:41;6.65;;;4.90;;
37445;SDS011;23307;51.136;14.942;2023-02-21T14:40:29;6.90;;;5.13;;
37445;SDS011;23307;51.136;14.942;2023-02-21T14:48:58;8.68;;;5.93;;
37445;SDS011;23307;51.136;14.942;2023-02-21T14:57:52;7.03;;;4.90;;
37445;SDS011;23307;51.136;14.942;2023-02-21T15:04:04;7.07;;;5.65;;
37445;SDS011;23307;51.136;14.942;2023-02-21T15:06:23;6.88;;;5.60;;
37445;SDS011;23307;51.136;14.942;2023-02-21T15:08:51;6.65;;;5.22;;
37445;SDS011;23307;51.136;14.942;2023-02-21T15:16:40;8.88;;;6.18;;
37445;SDS011;23307;51.136;14.942;2023-02-21T15:19:17;8.23;;;5.97;;
37445;SDS011;23307;51.136;14.942;2023-02-21T15:21:45;8.55;;;6.03;;
37445;SDS011;23307;51.136;14.942;2023-02-21T15:24:11;7.68;;;5.78;;
37445;SDS011;23307;51.136;14.942;2023-02-21T15:26:39;8.10;;;5.45;;
37445;SDS011;23307;51.136;14.942;2023-02-21T15:29:13;9.88;;;6.07;;
37445;SDS011;23307;51.136;14.942;2023-02-21T15:31:47;5.22;;;4.22;;
37445;SDS011;23307;51.136;14.942;2023-02-21T15:34:28;7.40;;;5.72;;
37445;SDS011;23307;51.136;14.942;2023-02-21T15:37:05;7.60;;;5.22;;
37445;SDS011;23307;51.136;14.942;2023-02-21T15:39:41;8.38;;;5.93;;
37445;SDS011;23307;51.136;14.942;2023-02-21T15:42:14;9.13;;;6.35;;
37445;SDS011;23307;51.136;14.942;2023-02-21T15:44:43;8.68;;;6.57;;
37445;SDS011;23307;51.136;14.942;2023-02-21T15:47:15;9.00;;;6.50;;
37445;SDS011;23307;51.136;14.942;2023-02-21T15:58:08;7.15;;;5.53;;
37445;SDS011;23307;51.136;14.942;2023-02-21T16:00:45;9.48;;;6.38;;
37445;SDS011;23307;51.136;14.942;2023-02-21T16:08:38;5.55;;;4.45;;
37445;SDS011;23307;51.136;14.942;2023-02-21T16:11:16;7.95;;;5.13;;
37445;SDS011;23307;51.136;14.942;2023-02-21T16:13:42;9.18;;;5.78;;
37445;SDS011;23307;51.136;14.942;2023-02-21T16:16:08;8.60;;;5.93;;
37445;SDS011;23307;51.136;14.942;2023-02-21T16:18:34;7.82;;;5.65;;
37445;SDS011;23307;51.136;14.942;2023-02-21T16:21:01;7.82;;;5.32;;
37445;SDS011;23307;51.136;14.942;2023-02-21T16:23:33;8.00;;;5.72;;
37445;SDS011;23307;51.136;14.942;2023-02-21T16:26:24;8.60;;;5.93;;
37445;SDS011;23307;51.136;14.942;2023-02-21T16:28:52;8.18;;;6.28;;
37445;SDS011;23307;51.136;14.942;2023-02-21T16:31:27;8.55;;;6.13;;
37445;SDS011;23307;51.136;14.942;2023-02-21T16:33:55;11.00;;;6.35;;
37445;SDS011;23307;51.136;14.942;2023-02-21T16:36:23;9.73;;;7.30;;
37445;SDS011;23307;51.136;14.942;2023-02-21T16:38:52;9.55;;;6.75;;
37445;SDS011;23307;51.136;14.942;2023-02-21T16:41:18;8.35;;;6.72;;
37445;SDS011;23307;51.136;14.942;2023-02-21T16:43:44;9.27;;;7.05;;
37445;SDS011;23307;51.136;14.942;2023-02-21T16:46:10;7.93;;;6.35;;
37445;SDS011;23307;51.136;14.942;2023-02-21T16:48:37;10.85;;;6.90;;
37445;SDS011;23307;51.136;14.942;2023-02-21T16:51:04;8.43;;;6.82;;
37445;SDS011;23307;51.136;14.942;2023-02-21T16:53:33;8.75;;;6.93;;
37445;SDS011;23307;51.136;14.942;2023-02-21T16:55:59;10.38;;;7.40;;
37445;SDS011;23307;51.136;14.942;2023-02-21T16:58:27;10.73;;;7.85;;
37445;SDS011;23307;51.136;14.942;2023-02-21T17:00:57;10.15;;;8.32;;
37445;SDS011;23307;51.136;14.942;2023-02-21T17:03:25;10.75;;;9.10;;
37445;SDS011;23307;51.136;14.942;2023-02-21T17:05:52;12.07;;;9.60;;
37445;SDS011;23307;51.136;14.942;2023-02-21T17:08:19;12.55;;;9.38;;
37445;SDS011;23307;51.136;14.942;2023-02-21T17:10:45;12.77;;;8.40;;
37445;SDS011;23307;51.136;14.942;2023-02-21T17:13:10;7.82;;;6.28;;
37445;SDS011;23307;51.136;14.942;2023-02-21T17:15:36;7.57;;;6.35;;
37445;SDS011;23307;51.136;14.942;2023-02-21T17:18:02;7.22;;;5.30;;
37445;SDS011;23307;51.136;14.942;2023-02-21T17:20:28;6.38;;;5.43;;
37445;SDS011;23307;51.136;14.942;2023-02-21T17:22:55;8.10;;;5.15;;
37445;SDS011;23307;51.136;14.942;2023-02-21T17:25:32;6.43;;;5.65;;